首页
METAR-TAF:

METAR-TAF

机场 :

比靈斯, 蒙大拿州, 美国

纬度: 45-48-25N, 经度: 108-32-32W, 海拔: 1112米

当前天气观测

该预报发布于26分钟前的02:53 UTC
风速10节,风向西转西南
温度 3°C
湿度 56%
气压 1013 hPa
能見度: 16.1公里
少量云层高于7000英尺
散云层高于9000英尺
多云层高于10000英尺

METAR: KBIL 120253Z 25010KT 10SM FEW070 SCT090 BKN100 03/M05 A2990 RMK AO2 SLP149 T00281050 50006

时间: 20:19 (03:19 UTC)

预报

该预报发布于3小时和56分钟前的23:23 UTC
预报有效从12日的 00点(UTC)到 12日的 24点(UTC)
风速9节,风向西南
能見度: 10公里
散云层高于9000英尺
多云层高于12000英尺

TAF: KBIL 112323Z 1200/1224 22009KT P6SM SCT090 BKN120

超过4000个机场的气象观测和天气预报(METAR&TAF报告)。

可查询的气象台以黄色和红色小点在地图上表示。

将鼠标移到小点上方,可查看气象台名称。

然后点击查看天气观测和预报。

如需切换地图:点击带黑十字的绿色按钮放大地图;点击带横线的绿色按钮缩小地图;或者点击绿色箭头查看邻近地区的地图。


METAR-TAF: